Terminal Aerodrome Forecast
Issued by NWS Boston, MA

Home | Current Version | Previous Version | Text Only | Print | Product List | Glossary On
Versions: 1 2 3 4 5 6 7 8 9 10 11 12 13 14 15 16 17 18 19 20 21 22 23 24 25 26 27 28 29 30 31 32 33 34 35 36 37 38 39 40 41 42 43 44 45 46 47 48 49 50
000
FTUS41 KBOX 281223 AAA
TAFPVD
TAF AMD
KPVD 281223Z 2812/2912 20008KT 2SM BR VCSH VV002
     FM281300 19005KT 4SM BR VCSH OVC004
     FM281400 20005KT 6SM BR BKN008
     FM281600 22006KT P6SM SCT008 BKN040
     FM281900 22007KT P6SM SCT150
     FM290600 VRB03KT P6SM SCT120=

USA.gov is the U.S. government's official web portal to all federal, state and local government web resources and services.